sensor_id;sensor_type;location;lat;lon;timestamp;pressure;altitude;pressure_sealevel;temperature;humidity
11712;BME280;5912;51.034;6.984;2023-07-08T00:00:24;55939.69;;;-142.13;32.87
11712;BME280;5912;51.034;6.984;2023-07-08T00:02:50;55935.69;;;-142.13;33.20
11712;BME280;5912;51.034;6.984;2023-07-08T00:05:18;55967.72;;;-142.13;33.29
11712;BME280;5912;51.034;6.984;2023-07-08T00:07:43;55969.72;;;-142.13;33.33
11712;BME280;5912;51.034;6.984;2023-07-08T00:10:21;55949.69;;;-142.13;33.21
11712;BME280;5912;51.034;6.984;2023-07-08T00:12:51;55939.69;;;-142.13;33.31
11712;BME280;5912;51.034;6.984;2023-07-08T00:15:22;55965.72;;;-142.13;33.43
11712;BME280;5912;51.034;6.984;2023-07-08T00:17:49;55983.75;;;-142.13;33.50
11712;BME280;5912;51.034;6.984;2023-07-08T00:20:19;55953.72;;;-142.13;33.64
11712;BME280;5912;51.034;6.984;2023-07-08T00:22:46;55981.75;;;-142.13;33.94
11712;BME280;5912;51.034;6.984;2023-07-08T00:25:16;55967.72;;;-142.13;33.52
11712;BME280;5912;51.034;6.984;2023-07-08T00:27:41;55963.72;;;-142.13;33.69
11712;BME280;5912;51.034;6.984;2023-07-08T00:32:44;55999.78;;;-142.13;33.98
11712;BME280;5912;51.034;6.984;2023-07-08T00:35:09;55969.72;;;-142.13;33.99
11712;BME280;5912;51.034;6.984;2023-07-08T00:37:35;55979.75;;;-142.13;34.23
11712;BME280;5912;51.034;6.984;2023-07-08T00:40:00;56011.78;;;-142.13;34.56
11712;BME280;5912;51.034;6.984;2023-07-08T00:42:25;55969.72;;;-142.13;34.67
11712;BME280;5912;51.034;6.984;2023-07-08T00:44:51;55977.75;;;-142.13;34.88
11712;BME280;5912;51.034;6.984;2023-07-08T00:47:17;55967.72;;;-142.13;35.19
11712;BME280;5912;51.034;6.984;2023-07-08T00:49:50;55967.72;;;-142.13;35.20
11712;BME280;5912;51.034;6.984;2023-07-08T00:55:01;55985.75;;;-142.13;34.84
11712;BME280;5912;51.034;6.984;2023-07-08T00:57:32;56003.78;;;-142.13;35.23
11712;BME280;5912;51.034;6.984;2023-07-08T01:00:05;56009.78;;;-142.13;35.25
11712;BME280;5912;51.034;6.984;2023-07-08T01:02:34;56003.78;;;-142.13;35.49
11712;BME280;5912;51.034;6.984;2023-07-08T01:05:24;56007.78;;;-142.13;35.63
11712;BME280;5912;51.034;6.984;2023-07-08T01:07:56;56013.78;;;-142.13;35.85
11712;BME280;5912;51.034;6.984;2023-07-08T01:10:26;56005.78;;;-142.13;35.86
11712;BME280;5912;51.034;6.984;2023-07-08T01:12:56;56027.81;;;-142.13;35.93
11712;BME280;5912;51.034;6.984;2023-07-08T01:15:31;56041.84;;;-142.13;35.90
11712;BME280;5912;51.034;6.984;2023-07-08T01:18:17;55987.75;;;-142.13;36.27
11712;BME280;5912;51.034;6.984;2023-07-08T01:20:46;56005.78;;;-142.13;36.28
11712;BME280;5912;51.034;6.984;2023-07-08T01:23:13;56009.78;;;-142.13;36.37
11712;BME280;5912;51.034;6.984;2023-07-08T01:25:41;56033.81;;;-142.13;36.66
11712;BME280;5912;51.034;6.984;2023-07-08T01:28:08;56027.81;;;-142.13;36.75
11712;BME280;5912;51.034;6.984;2023-07-08T01:30:33;56025.81;;;-142.13;37.21
11712;BME280;5912;51.034;6.984;2023-07-08T01:33:02;56051.84;;;-142.13;37.09
11712;BME280;5912;51.034;6.984;2023-07-08T01:35:29;56037.84;;;-142.13;37.57
11712;BME280;5912;51.034;6.984;2023-07-08T01:37:58;56035.81;;;-142.13;37.70
11712;BME280;5912;51.034;6.984;2023-07-08T01:40:32;56029.81;;;-142.13;37.86
11712;BME280;5912;51.034;6.984;2023-07-08T01:42:58;56043.84;;;-142.13;38.25
11712;BME280;5912;51.034;6.984;2023-07-08T01:45:26;56031.81;;;-142.13;38.38
11712;BME280;5912;51.034;6.984;2023-07-08T01:48:02;56027.81;;;-142.13;38.54
11712;BME280;5912;51.034;6.984;2023-07-08T01:50:29;56065.88;;;-142.13;38.76
11712;BME280;5912;51.034;6.984;2023-07-08T01:52:58;56035.81;;;-142.13;39.37
11712;BME280;5912;51.034;6.984;2023-07-08T01:55:26;56045.84;;;-142.13;39.50
11712;BME280;5912;51.034;6.984;2023-07-08T01:57:55;56043.84;;;-142.13;39.30
11712;BME280;5912;51.034;6.984;2023-07-08T02:00:21;56051.84;;;-142.13;39.58
11712;BME280;5912;51.034;6.984;2023-07-08T02:02:47;56051.84;;;-142.13;39.65
11712;BME280;5912;51.034;6.984;2023-07-08T02:05:13;56047.84;;;-142.13;39.75
11712;BME280;5912;51.034;6.984;2023-07-08T02:07:38;56059.88;;;-142.13;39.65
11712;BME280;5912;51.034;6.984;2023-07-08T02:10:04;56055.84;;;-142.13;39.63
11712;BME280;5912;51.034;6.984;2023-07-08T02:12:30;56077.91;;;-142.13;39.57
11712;BME280;5912;51.034;6.984;2023-07-08T02:14:55;56037.84;;;-142.13;39.82
11712;BME280;5912;51.034;6.984;2023-07-08T02:17:20;56061.88;;;-142.13;39.75
11712;BME280;5912;51.034;6.984;2023-07-08T02:19:46;56049.84;;;-142.13;39.58
11712;BME280;5912;51.034;6.984;2023-07-08T02:22:11;56067.88;;;-142.13;39.51
11712;BME280;5912;51.034;6.984;2023-07-08T02:24:36;56047.84;;;-142.13;39.75
11712;BME280;5912;51.034;6.984;2023-07-08T02:27:02;56057.88;;;-142.13;39.73
11712;BME280;5912;51.034;6.984;2023-07-08T02:29:27;56063.88;;;-142.13;40.02
11712;BME280;5912;51.034;6.984;2023-07-08T02:31:52;56067.88;;;-142.13;39.99
11712;BME280;5912;51.034;6.984;2023-07-08T02:34:18;56045.84;;;-142.13;39.75
11712;BME280;5912;51.034;6.984;2023-07-08T02:36:43;56071.88;;;-142.13;39.64
11712;BME280;5912;51.034;6.984;2023-07-08T02:39:09;56065.88;;;-142.13;40.02
11712;BME280;5912;51.034;6.984;2023-07-08T02:41:35;56039.84;;;-142.13;40.33
11712;BME280;5912;51.034;6.984;2023-07-08T02:44:00;56065.88;;;-142.13;40.58
11712;BME280;5912;51.034;6.984;2023-07-08T02:46:26;56063.88;;;-142.13;40.96
11712;BME280;5912;51.034;6.984;2023-07-08T02:48:51;56071.88;;;-142.13;41.41
11712;BME280;5912;51.034;6.984;2023-07-08T02:51:16;56081.91;;;-142.13;41.76
11712;BME280;5912;51.034;6.984;2023-07-08T02:53:42;56055.84;;;-142.13;41.88
11712;BME280;5912;51.034;6.984;2023-07-08T02:56:07;56067.88;;;-142.13;41.95
11712;BME280;5912;51.034;6.984;2023-07-08T02:58:32;56101.94;;;-142.13;41.74
11712;BME280;5912;51.034;6.984;2023-07-08T03:00:59;56081.91;;;-142.13;41.92
11712;BME280;5912;51.034;6.984;2023-07-08T03:03:26;56079.91;;;-142.13;42.20
11712;BME280;5912;51.034;6.984;2023-07-08T03:05:55;56063.88;;;-142.13;42.07
11712;BME280;5912;51.034;6.984;2023-07-08T03:08:22;56101.94;;;-142.13;42.60
11712;BME280;5912;51.034;6.984;2023-07-08T03:10:53;56079.91;;;-142.13;42.67
11712;BME280;5912;51.034;6.984;2023-07-08T03:13:19;56099.94;;;-142.13;42.88
11712;BME280;5912;51.034;6.984;2023-07-08T03:15:45;56085.91;;;-142.13;43.27
11712;BME280;5912;51.034;6.984;2023-07-08T03:18:10;56099.94;;;-142.13;43.82
11712;BME280;5912;51.034;6.984;2023-07-08T03:20:39;56067.88;;;-142.13;44.09
11712;BME280;5912;51.034;6.984;2023-07-08T03:23:04;56101.94;;;-142.13;44.42
11712;BME280;5912;51.034;6.984;2023-07-08T03:25:30;56093.91;;;-142.13;45.27
11712;BME280;5912;51.034;6.984;2023-07-08T03:27:55;56107.94;;;-142.13;45.45
11712;BME280;5912;51.034;6.984;2023-07-08T03:30:22;56113.94;;;-142.13;45.73
11712;BME280;5912;51.034;6.984;2023-07-08T03:32:48;56091.91;;;-142.13;46.46
11712;BME280;5912;51.034;6.984;2023-07-08T03:35:14;56121.97;;;-142.13;46.92
11712;BME280;5912;51.034;6.984;2023-07-08T03:37:39;56113.94;;;-142.13;47.06
11712;BME280;5912;51.034;6.984;2023-07-08T03:40:07;56115.94;;;-142.13;47.17
11712;BME280;5912;51.034;6.984;2023-07-08T03:42:32;56103.94;;;-142.13;47.88
11712;BME280;5912;51.034;6.984;2023-07-08T03:44:58;56105.94;;;-142.13;47.87
11712;BME280;5912;51.034;6.984;2023-07-08T03:47:23;56087.91;;;-142.13;48.52
11712;BME280;5912;51.034;6.984;2023-07-08T03:49:48;56107.94;;;-142.13;48.50
11712;BME280;5912;51.034;6.984;2023-07-08T03:52:15;56111.94;;;-142.13;48.61
11712;BME280;5912;51.034;6.984;2023-07-08T03:54:42;56095.91;;;-142.13;48.02
11712;BME280;5912;51.034;6.984;2023-07-08T03:57:07;56111.94;;;-142.13;47.03
11712;BME280;5912;51.034;6.984;2023-07-08T03:59:32;56093.91;;;-142.13;45.78
11712;BME280;5912;51.034;6.984;2023-07-08T04:01:57;56073.88;;;-142.13;44.92
11712;BME280;5912;51.034;6.984;2023-07-08T04:04:23;56101.94;;;-142.13;44.16
11712;BME280;5912;51.034;6.984;2023-07-08T04:06:48;56099.94;;;-142.13;43.60
11712;BME280;5912;51.034;6.984;2023-07-08T04:09:15;56075.88;;;-142.13;43.40
11712;BME280;5912;51.034;6.984;2023-07-08T04:11:41;56051.84;;;-142.13;43.24
11712;BME280;5912;51.034;6.984;2023-07-08T04:14:08;56035.81;;;-142.13;42.72
11712;BME280;5912;51.034;6.984;2023-07-08T04:19:12;56059.88;;;-142.13;41.83
11712;BME280;5912;51.034;6.984;2023-07-08T04:21:40;56053.84;;;-142.13;41.56
11712;BME280;5912;51.034;6.984;2023-07-08T04:24:09;56051.84;;;-142.13;41.47
11712;BME280;5912;51.034;6.984;2023-07-08T04:26:34;56071.88;;;-142.13;41.24
11712;BME280;5912;51.034;6.984;2023-07-08T04:29:01;56071.88;;;-142.13;41.06
11712;BME280;5912;51.034;6.984;2023-07-08T04:31:26;56075.88;;;-142.13;40.85
11712;BME280;5912;51.034;6.984;2023-07-08T04:33:52;56071.88;;;-142.13;40.86
11712;BME280;5912;51.034;6.984;2023-07-08T04:36:17;56045.84;;;-142.13;41.44
11712;BME280;5912;51.034;6.984;2023-07-08T04:38:46;56055.84;;;-142.13;40.80
11712;BME280;5912;51.034;6.984;2023-07-08T04:41:12;56049.84;;;-142.13;40.96
11712;BME280;5912;51.034;6.984;2023-07-08T04:43:37;56075.88;;;-142.13;41.24
11712;BME280;5912;51.034;6.984;2023-07-08T04:46:04;56047.84;;;-142.13;40.89
11712;BME280;5912;51.034;6.984;2023-07-08T04:48:41;56063.88;;;-142.13;40.93
11712;BME280;5912;51.034;6.984;2023-07-08T04:51:08;56071.88;;;-142.13;40.79
11712;BME280;5912;51.034;6.984;2023-07-08T04:53:33;56039.84;;;-142.13;41.10
11712;BME280;5912;51.034;6.984;2023-07-08T04:55:59;56055.84;;;-142.13;41.24
11712;BME280;5912;51.034;6.984;2023-07-08T04:58:24;56043.84;;;-142.13;41.60
11712;BME280;5912;51.034;6.984;2023-07-08T05:00:49;56083.91;;;-142.13;41.85
11712;BME280;5912;51.034;6.984;2023-07-08T05:03:15;56099.94;;;-142.13;41.78
11712;BME280;5912;51.034;6.984;2023-07-08T05:05:40;56047.84;;;-142.13;41.63
11712;BME280;5912;51.034;6.984;2023-07-08T05:08:06;56059.88;;;-142.13;41.13
11712;BME280;5912;51.034;6.984;2023-07-08T05:10:32;56025.81;;;-142.13;40.60
11712;BME280;5912;51.034;6.984;2023-07-08T05:12:57;56035.81;;;-142.13;40.13
11712;BME280;5912;51.034;6.984;2023-07-08T05:15:23;55995.78;;;-142.13;39.40
11712;BME280;5912;51.034;6.984;2023-07-08T05:17:50;56003.78;;;-142.13;38.20
11712;BME280;5912;51.034;6.984;2023-07-08T05:20:16;55971.72;;;-142.13;37.77
11712;BME280;5912;51.034;6.984;2023-07-08T05:22:44;55985.75;;;-142.13;37.41
11712;BME280;5912;51.034;6.984;2023-07-08T05:25:12;55945.69;;;-142.13;37.53
11712;BME280;5912;51.034;6.984;2023-07-08T05:27:38;55983.75;;;-142.13;37.08
11712;BME280;5912;51.034;6.984;2023-07-08T05:30:05;55967.72;;;-142.13;36.89
11712;BME280;5912;51.034;6.984;2023-07-08T05:32:31;55933.69;;;-142.13;37.11
11712;BME280;5912;51.034;6.984;2023-07-08T05:34:57;55985.75;;;-142.13;37.38
11712;BME280;5912;51.034;6.984;2023-07-08T05:37:22;55963.72;;;-142.13;36.80
11712;BME280;5912;51.034;6.984;2023-07-08T05:39:51;55987.75;;;-142.13;36.87
11712;BME280;5912;51.034;6.984;2023-07-08T05:42:16;55987.75;;;-142.13;36.91
11712;BME280;5912;51.034;6.984;2023-07-08T05:44:42;55977.75;;;-142.13;37.02
11712;BME280;5912;51.034;6.984;2023-07-08T05:47:07;55973.75;;;-142.13;36.66
11712;BME280;5912;51.034;6.984;2023-07-08T05:49:32;55955.72;;;-142.13;36.48
11712;BME280;5912;51.034;6.984;2023-07-08T05:51:58;55965.72;;;-142.13;36.23
11712;BME280;5912;51.034;6.984;2023-07-08T05:54:23;55947.69;;;-142.13;35.92
11712;BME280;5912;51.034;6.984;2023-07-08T05:56:48;55945.69;;;-142.13;35.85
11712;BME280;5912;51.034;6.984;2023-07-08T05:59:14;55939.69;;;-142.13;35.42
11712;BME280;5912;51.034;6.984;2023-07-08T06:01:39;55941.69;;;-142.13;35.39
11712;BME280;5912;51.034;6.984;2023-07-08T06:04:04;55923.66;;;-142.13;34.94
11712;BME280;5912;51.034;6.984;2023-07-08T06:06:30;55913.66;;;-142.13;35.13
11712;BME280;5912;51.034;6.984;2023-07-08T06:08:55;55895.63;;;-142.13;34.50
11712;BME280;5912;51.034;6.984;2023-07-08T06:11:20;55907.63;;;-142.13;34.10
11712;BME280;5912;51.034;6.984;2023-07-08T06:13:47;55891.63;;;-142.13;33.67
11712;BME280;5912;51.034;6.984;2023-07-08T06:16:12;55893.63;;;-142.13;33.86
11712;BME280;5912;51.034;6.984;2023-07-08T06:18:37;55881.59;;;-142.13;33.63
11712;BME280;5912;51.034;6.984;2023-07-08T06:21:03;55853.56;;;-142.13;33.05
11712;BME280;5912;51.034;6.984;2023-07-08T06:23:29;55849.56;;;-142.13;32.02
11712;BME280;5912;51.034;6.984;2023-07-08T06:25:54;55793.47;;;-142.13;30.72
11712;BME280;5912;51.034;6.984;2023-07-08T06:28:20;55939.69;;;-142.13;30.50
11712;BME280;5912;51.034;6.984;2023-07-08T06:30:46;55767.44;;;-142.13;29.95
11712;BME280;5912;51.034;6.984;2023-07-08T06:33:11;55747.41;;;-142.13;29.19
11712;BME280;5912;51.034;6.984;2023-07-08T06:35:38;55737.38;;;-142.13;28.55
11712;BME280;5912;51.034;6.984;2023-07-08T06:38:03;55703.34;;;-142.13;28.72
11712;BME280;5912;51.034;6.984;2023-07-08T06:40:28;55719.38;;;-142.13;28.19
11712;BME280;5912;51.034;6.984;2023-07-08T06:42:55;55703.34;;;-142.13;27.62
11712;BME280;5912;51.034;6.984;2023-07-08T06:45:20;55687.31;;;-142.13;27.36
11712;BME280;5912;51.034;6.984;2023-07-08T06:47:45;55657.28;;;-142.13;27.11
11712;BME280;5912;51.034;6.984;2023-07-08T06:50:11;55637.25;;;-142.13;26.60
11712;BME280;5912;51.034;6.984;2023-07-08T06:52:37;55653.28;;;-142.13;26.52
11712;BME280;5912;51.034;6.984;2023-07-08T06:55:08;55623.22;;;-142.13;25.88
11712;BME280;5912;51.034;6.984;2023-07-08T06:57:34;55593.19;;;-142.13;25.89
11712;BME280;5912;51.034;6.984;2023-07-08T07:00:00;55591.19;;;-142.13;25.96
11712;BME280;5912;51.034;6.984;2023-07-08T07:02:26;55619.22;;;-142.13;25.53
11712;BME280;5912;51.034;6.984;2023-07-08T07:04:51;55583.16;;;-142.13;25.30
11712;BME280;5912;51.034;6.984;2023-07-08T07:07:17;55551.13;;;-142.13;25.06
11712;BME280;5912;51.034;6.984;2023-07-08T07:09:42;55531.09;;;-142.13;24.52
11712;BME280;5912;51.034;6.984;2023-07-08T07:12:08;55515.06;;;-142.13;24.13
11712;BME280;5912;51.034;6.984;2023-07-08T07:14:33;55499.06;;;-142.13;23.90
11712;BME280;5912;51.034;6.984;2023-07-08T07:16:59;55497.06;;;-142.13;23.40
11712;BME280;5912;51.034;6.984;2023-07-08T07:19:24;55477.03;;;-142.13;22.76
11712;BME280;5912;51.034;6.984;2023-07-08T07:21:50;55503.06;;;-142.13;22.96
11712;BME280;5912;51.034;6.984;2023-07-08T07:24:15;55473.00;;;-142.13;22.79
11712;BME280;5912;51.034;6.984;2023-07-08T07:26:40;55450.97;;;-142.13;22.93
11712;BME280;5912;51.034;6.984;2023-07-08T07:29:06;55459.00;;;-142.13;22.77
11712;BME280;5912;51.034;6.984;2023-07-08T07:31:31;55444.97;;;-142.13;22.63
11712;BME280;5912;51.034;6.984;2023-07-08T07:33:59;55428.97;;;-142.13;22.12
11712;BME280;5912;51.034;6.984;2023-07-08T07:36:24;55444.97;;;-142.13;21.96
11712;BME280;5912;51.034;6.984;2023-07-08T07:38:50;55440.97;;;-142.13;22.11
11712;BME280;5912;51.034;6.984;2023-07-08T07:41:16;55457.00;;;-142.13;22.02
11712;BME280;5912;51.034;6.984;2023-07-08T07:43:41;55463.00;;;-142.13;22.29
11712;BME280;5912;51.034;6.984;2023-07-08T07:46:06;55442.97;;;-142.13;22.23
11712;BME280;5912;51.034;6.984;2023-07-08T07:48:33;55430.97;;;-142.13;21.85
11712;BME280;5912;51.034;6.984;2023-07-08T07:50:58;55475.03;;;-142.13;21.88
11712;BME280;5912;51.034;6.984;2023-07-08T07:53:24;55481.03;;;-142.13;22.37
11712;BME280;5912;51.034;6.984;2023-07-08T07:55:57;55481.03;;;-142.13;22.19
11712;BME280;5912;51.034;6.984;2023-07-08T07:58:23;55467.00;;;-142.13;22.01
11712;BME280;5912;51.034;6.984;2023-07-08T08:00:48;55438.97;;;-142.13;21.73
11712;BME280;5912;51.034;6.984;2023-07-08T08:03:13;55440.97;;;-142.13;22.13
11712;BME280;5912;51.034;6.984;2023-07-08T08:05:41;55475.03;;;-142.13;22.27
11712;BME280;5912;51.034;6.984;2023-07-08T08:08:06;55463.00;;;-142.13;21.85
11712;BME280;5912;51.034;6.984;2023-07-08T08:10:32;55442.97;;;-142.13;21.50
11712;BME280;5912;51.034;6.984;2023-07-08T08:12:58;55471.00;;;-142.13;21.95
11712;BME280;5912;51.034;6.984;2023-07-08T08:15:24;55529.09;;;-142.13;22.75
11712;BME280;5912;51.034;6.984;2023-07-08T08:17:49;55559.13;;;-142.13;23.51
11712;BME280;5912;51.034;6.984;2023-07-08T08:20:18;55611.22;;;-142.13;24.39
11712;BME280;5912;51.034;6.984;2023-07-08T08:22:43;55631.25;;;-142.13;24.68
11712;BME280;5912;51.034;6.984;2023-07-08T08:25:08;55645.25;;;-142.13;24.92
11712;BME280;5912;51.034;6.984;2023-07-08T08:27:35;55651.25;;;-142.13;25.26
11712;BME280;5912;51.034;6.984;2023-07-08T08:30:01;55641.25;;;-142.13;25.40
11712;BME280;5912;51.034;6.984;2023-07-08T08:32:26;55651.25;;;-142.13;25.70
11712;BME280;5912;51.034;6.984;2023-07-08T08:34:52;55665.28;;;-142.13;25.65
11712;BME280;5912;51.034;6.984;2023-07-08T08:37:18;55607.19;;;-142.13;25.48
11712;BME280;5912;51.034;6.984;2023-07-08T08:39:43;55551.13;;;-142.13;23.93
11712;BME280;5912;51.034;6.984;2023-07-08T08:42:32;55523.09;;;-142.13;23.32
11712;BME280;5912;51.034;6.984;2023-07-08T08:45:00;55461.00;;;-142.13;22.39
11712;BME280;5912;51.034;6.984;2023-07-08T08:47:35;55442.97;;;-142.13;22.32
11712;BME280;5912;51.034;6.984;2023-07-08T08:52:53;55430.97;;;-142.13;21.36
11712;BME280;5912;51.034;6.984;2023-07-08T08:55:21;55402.91;;;-142.13;21.45
11712;BME280;5912;51.034;6.984;2023-07-08T08:58:00;55396.91;;;-142.13;21.11
11712;BME280;5912;51.034;6.984;2023-07-08T09:00:54;55386.91;;;-142.13;21.19
11712;BME280;5912;51.034;6.984;2023-07-08T09:06:09;55444.97;;;-142.13;21.18
11712;BME280;5912;51.034;6.984;2023-07-08T09:08:36;55378.88;;;-142.13;20.45
11712;BME280;5912;51.034;6.984;2023-07-08T09:11:15;55378.88;;;-142.13;21.08
11712;BME280;5912;51.034;6.984;2023-07-08T09:13:43;55382.91;;;-142.13;20.88
11712;BME280;5912;51.034;6.984;2023-07-08T09:19:00;55398.91;;;-142.13;21.00
11712;BME280;5912;51.034;6.984;2023-07-08T09:21:46;55394.91;;;-142.13;21.14
11712;BME280;5912;51.034;6.984;2023-07-08T09:24:45;55418.94;;;-142.13;21.14
11712;BME280;5912;51.034;6.984;2023-07-08T09:27:14;55412.94;;;-142.13;21.13
11712;BME280;5912;51.034;6.984;2023-07-08T09:29:39;55408.94;;;-142.13;21.52
11712;BME280;5912;51.034;6.984;2023-07-08T09:32:19;55469.00;;;-142.13;21.70
11712;BME280;5912;51.034;6.984;2023-07-08T09:34:49;55446.97;;;-142.13;21.92
11712;BME280;5912;51.034;6.984;2023-07-08T09:37:21;55442.97;;;-142.13;22.05
11712;BME280;5912;51.034;6.984;2023-07-08T09:39:46;55410.94;;;-142.13;21.82
11712;BME280;5912;51.034;6.984;2023-07-08T09:42:13;55428.97;;;-142.13;21.61
11712;BME280;5912;51.034;6.984;2023-07-08T09:44:39;55426.94;;;-142.13;22.27
11712;BME280;5912;51.034;6.984;2023-07-08T09:47:20;55406.94;;;-142.13;21.92
11712;BME280;5912;51.034;6.984;2023-07-08T09:49:47;55410.94;;;-142.13;21.83
11712;BME280;5912;51.034;6.984;2023-07-08T09:52:13;55400.91;;;-142.13;22.11
11712;BME280;5912;51.034;6.984;2023-07-08T09:54:40;55406.94;;;-142.13;21.50
11712;BME280;5912;51.034;6.984;2023-07-08T09:59:53;55376.88;;;-142.13;21.19
11712;BME280;5912;51.034;6.984;2023-07-08T10:02:33;55390.91;;;-142.13;21.45
11712;BME280;5912;51.034;6.984;2023-07-08T10:05:22;55358.88;;;-142.13;20.90
11712;BME280;5912;51.034;6.984;2023-07-08T10:07:52;55362.88;;;-142.13;21.09
11712;BME280;5912;51.034;6.984;2023-07-08T10:10:24;55366.88;;;-142.13;20.85
11712;BME280;5912;51.034;6.984;2023-07-08T10:12:56;55374.88;;;-142.13;21.46
11712;BME280;5912;51.034;6.984;2023-07-08T10:17:54;55362.88;;;-142.13;21.03
11712;BME280;5912;51.034;6.984;2023-07-08T10:20:21;55386.91;;;-142.13;20.93
11712;BME280;5912;51.034;6.984;2023-07-08T10:23:15;55372.88;;;-142.13;21.04
11712;BME280;5912;51.034;6.984;2023-07-08T10:25:57;55346.84;;;-142.13;21.06
11712;BME280;5912;51.034;6.984;2023-07-08T10:28:32;55374.88;;;-142.13;20.89
11712;BME280;5912;51.034;6.984;2023-07-08T10:37:22;55360.88;;;-142.13;20.62
11712;BME280;5912;51.034;6.984;2023-07-08T10:39:53;55362.88;;;-142.13;20.80
11712;BME280;5912;51.034;6.984;2023-07-08T10:45:17;55356.84;;;-142.13;20.40
11712;BME280;5912;51.034;6.984;2023-07-08T10:56:02;55296.78;;;-142.13;20.47
11712;BME280;5912;51.034;6.984;2023-07-08T10:58:49;55308.78;;;-142.13;20.41
11712;BME280;5912;51.034;6.984;2023-07-08T11:06:51;55292.78;;;-142.13;20.08
11712;BME280;5912;51.034;6.984;2023-07-08T11:09:24;55310.78;;;-142.13;20.19
11712;BME280;5912;51.034;6.984;2023-07-08T11:12:34;55318.81;;;-142.13;20.41
11712;BME280;5912;51.034;6.984;2023-07-08T11:14:51;55322.81;;;-142.13;20.28
11712;BME280;5912;51.034;6.984;2023-07-08T11:17:31;55338.84;;;-142.13;20.99
11712;BME280;5912;51.034;6.984;2023-07-08T11:20:04;55306.78;;;-142.13;20.75
11712;BME280;5912;51.034;6.984;2023-07-08T11:22:45;55288.78;;;-142.13;20.42
11712;BME280;5912;51.034;6.984;2023-07-08T11:25:18;55523.09;;;-142.13;19.79
11712;BME280;5912;51.034;6.984;2023-07-08T11:27:46;55328.81;;;-142.13;19.93
11712;BME280;5912;51.034;6.984;2023-07-08T11:30:14;55330.81;;;-142.13;20.50
11712;BME280;5912;51.034;6.984;2023-07-08T11:32:44;55318.81;;;-142.13;20.48
11712;BME280;5912;51.034;6.984;2023-07-08T11:35:20;55314.81;;;-142.13;20.16
11712;BME280;5912;51.034;6.984;2023-07-08T11:37:46;55316.81;;;-142.13;20.17
11712;BME280;5912;51.034;6.984;2023-07-08T11:40:20;55306.78;;;-142.13;19.96
11712;BME280;5912;51.034;6.984;2023-07-08T11:42:51;55274.75;;;-142.13;20.04
11712;BME280;5912;51.034;6.984;2023-07-08T11:45:30;55284.75;;;-142.13;19.99
11712;BME280;5912;51.034;6.984;2023-07-08T11:48:29;55274.75;;;-142.13;19.71
11712;BME280;5912;51.034;6.984;2023-07-08T11:50:57;55252.72;;;-142.13;19.85
11712;BME280;5912;51.034;6.984;2023-07-08T11:56:22;55260.72;;;-142.13;19.44
11712;BME280;5912;51.034;6.984;2023-07-08T12:03:40;55234.69;;;-142.13;18.77
11712;BME280;5912;51.034;6.984;2023-07-08T12:08:54;55256.72;;;-142.13;18.75
11712;BME280;5912;51.034;6.984;2023-07-08T12:11:25;55254.72;;;-142.13;18.70
11712;BME280;5912;51.034;6.984;2023-07-08T12:13:53;55254.72;;;-142.13;18.76
11712;BME280;5912;51.034;6.984;2023-07-08T12:16:21;55250.72;;;-142.13;18.78
11712;BME280;5912;51.034;6.984;2023-07-08T12:18:48;55270.75;;;-142.13;18.71
11712;BME280;5912;51.034;6.984;2023-07-08T12:21:15;55278.75;;;-142.13;19.19
11712;BME280;5912;51.034;6.984;2023-07-08T12:23:45;55278.75;;;-142.13;19.19
11712;BME280;5912;51.034;6.984;2023-07-08T12:26:12;55274.75;;;-142.13;19.06
11712;BME280;5912;51.034;6.984;2023-07-08T12:28:38;55258.72;;;-142.13;19.17
11712;BME280;5912;51.034;6.984;2023-07-08T12:31:17;55262.72;;;-142.13;19.21
11712;BME280;5912;51.034;6.984;2023-07-08T12:33:44;55242.72;;;-142.13;18.95
11712;BME280;5912;51.034;6.984;2023-07-08T12:36:13;55246.72;;;-142.13;18.82
11712;BME280;5912;51.034;6.984;2023-07-08T12:38:41;55234.69;;;-142.13;18.75
11712;BME280;5912;51.034;6.984;2023-07-08T12:41:12;55242.72;;;-142.13;18.92
11712;BME280;5912;51.034;6.984;2023-07-08T12:43:37;55220.69;;;-142.13;19.30
11712;BME280;5912;51.034;6.984;2023-07-08T12:46:03;55232.69;;;-142.13;18.76
11712;BME280;5912;51.034;6.984;2023-07-08T12:48:39;55224.69;;;-142.13;18.83
11712;BME280;5912;51.034;6.984;2023-07-08T12:51:09;55254.72;;;-142.13;18.79
11712;BME280;5912;51.034;6.984;2023-07-08T12:53:36;55262.72;;;-142.13;18.65
11712;BME280;5912;51.034;6.984;2023-07-08T12:56:02;55270.75;;;-142.13;18.56
11712;BME280;5912;51.034;6.984;2023-07-08T12:58:30;55260.72;;;-142.13;18.85
11712;BME280;5912;51.034;6.984;2023-07-08T13:00:59;55238.69;;;-142.13;18.47
11712;BME280;5912;51.034;6.984;2023-07-08T13:03:28;55256.72;;;-142.13;18.40
11712;BME280;5912;51.034;6.984;2023-07-08T13:05:55;55244.72;;;-142.13;18.27
11712;BME280;5912;51.034;6.984;2023-07-08T13:08:25;55262.72;;;-142.13;18.82
11712;BME280;5912;51.034;6.984;2023-07-08T13:10:53;55248.72;;;-142.13;18.97
11712;BME280;5912;51.034;6.984;2023-07-08T13:13:24;55238.69;;;-142.13;18.64
11712;BME280;5912;51.034;6.984;2023-07-08T13:15:51;55234.69;;;-142.13;18.75
11712;BME280;5912;51.034;6.984;2023-07-08T13:18:23;55226.69;;;-142.13;18.92
11712;BME280;5912;51.034;6.984;2023-07-08T13:20:52;55228.69;;;-142.13;18.80
11712;BME280;5912;51.034;6.984;2023-07-08T13:23:19;55222.69;;;-142.13;18.18
11712;BME280;5912;51.034;6.984;2023-07-08T13:25:50;55244.72;;;-142.13;19.31
11712;BME280;5912;51.034;6.984;2023-07-08T13:28:26;55236.69;;;-142.13;18.67
11712;BME280;5912;51.034;6.984;2023-07-08T13:30:53;55240.69;;;-142.13;18.52
11712;BME280;5912;51.034;6.984;2023-07-08T13:33:19;55246.72;;;-142.13;19.15
11712;BME280;5912;51.034;6.984;2023-07-08T13:35:45;55246.72;;;-142.13;18.80
11712;BME280;5912;51.034;6.984;2023-07-08T13:38:15;55264.75;;;-142.13;18.38
11712;BME280;5912;51.034;6.984;2023-07-08T13:40:47;55322.81;;;-142.13;19.12
11712;BME280;5912;51.034;6.984;2023-07-08T13:43:14;55270.75;;;-142.13;19.44
11712;BME280;5912;51.034;6.984;2023-07-08T13:45:45;55278.75;;;-142.13;19.13
11712;BME280;5912;51.034;6.984;2023-07-08T13:48:27;55282.75;;;-142.13;19.04
11712;BME280;5912;51.034;6.984;2023-07-08T13:53:53;55270.75;;;-142.13;19.44